Lake Charles, LA

2:32 AM CDT on April 25, 2015 (GMT -0500)
LCB Academy | | Change Station
CLOSE
Current Station
Personal Weather Station
Location: Lake Charles, LA
Elevation: 33 ft
Nearby Weather Stations
Active Advisory: Flood Warning

Elev 33 ft 30.22 °N, 93.20 °W | Updated 2 minutes ago

Rain
Rain
75.3 °F
Feels Like 74 °F
N
2.0
Wind Variable Wind from South
Gusts 6.0 mph

Today
High -- | Low -- °F
--% Chance of Precip.
Yesterday
High -- | Low -- °F
Precip. -- in
6:35 AM 7:46 PM
Waxing Crescent, 43% visible
Pressure 29.83 in
Visibility 7.0 miles
Clouds Scattered Clouds 1500 ft
Mostly Cloudy 2400 ft
Mostly Cloudy 4000 ft
Heat Index 74 °F
Dew Point 73 °F
Humidity 93%
Rainfall 0.02 in
Snow Depth Not available.
UV 0 out of 12
Pollen 7.40 out of 12
Air Quality Not available.
Flu Activity Sporadic
METAR KCWF 250715Z AUTO 20003KT 7SM -DZ SCT015 BKN024 BKN040 23/22 A2983 RMK AO2 T02400230

More Conditions Fewer Conditions

Pressure 29.83 in
Visibility 7.0 miles
Clouds Scattered Clouds 1500 ft
Mostly Cloudy 2400 ft
Mostly Cloudy 4000 ft
Heat Index 74 °F
Dew Point 73 °F
Humidity 93%
Rainfall 0.02 in
Snow Depth Not available.
UV 0 out of 12
Pollen 7.40 out of 12
Air Quality Not available.
Flu Activity Sporadic
METAR KCWF 250715Z AUTO 20003KT 7SM -DZ SCT015 BKN024 BKN040 23/22 A2983 RMK AO2 T02400230

More Conditions Fewer Conditions

10-Day Weather Forecast

Almanac

Astronomy

Apr. 25, 2015 Rise Set
Actual Time
Civil Twilight
Nautical Twilight
Astronomical Twilight
Moon
Length of Visible Light
Length of Day
Tomorrow will be .
, % of the Moon is Illuminated

Today's Extremes

State Highs State Lows

Community

WunderPhotos

Upload Photos

1,816,624 photos uploaded!

WunderBlogs® & News

Nearby

Air Quality

  Air Quality AQ Index Pollutant
Not available.

Snow Depth

Station Depth Elevation

Earthquake Activity

City Distance Mag. Time & Date
Minimum magnitude displayed is 2.5.

Coastal Water Temperatures

Place Temperature

Stations

Nearby Weather Stations

Station Location Temp. Windchill Dew Point Humidity Wind Precip. Elev Updated Type
                   
Flood Warning
Statement as of 8:53 PM CDT on April 24, 2015

The Flood Warning continues for
the Sabine River near Deweyville.
* Until further notice... or until the warning is cancelled.
* At 7:45 PM Friday the stage was 24.2 feet.
* Minor flooding is occurring and minor flooding is forecast.
* Flood stage is 24.0 feet.
* Forecast... the river will continue rising to near 24.3 feet by
early Saturday afternoon then begin falling.
* Impact... at stages near 24.0 feet... minor lowland flooding will
occur.


Lat... Lon 3061 9376 3031 9381 3008 9378 3005 9367
      3044 9364 3057 9363